JQ1YUX-13 Tokyo Ota-ku JP current weather conditions

sailwx.info

Wind from 186 at 0 knots gusting 3

Air temperature 26.1° C
Dewpoint 22.4° C

Last reported at 2017-Sep-24 05:47 UTC.
Time now 2017-Sep-24 07:10 UTC

Location: N 35°35' E 139°40'.
View on Google Maps.

See reports from other nearby stations

  
Tides and Currents Weather Stations Pressure Air Temp Water Temp Dewpoint Dewpoint Depression Visibility Wind Speed Wind Dir Waves Ship Positions
date/time (UTC)wind fromknots sea level pressurealtimeterstation pressurevisibilityair tempwater tempwave heightnotes
2017-Sep-24 05:47 186 0 gusting 3 26.1
2017-Sep-24 05:16 167 0 gusting 1 26.1
2017-Sep-24 04:46 167 1 gusting 4 26.1
2017-Sep-24 04:16 219 2 gusting 6 26.7
2017-Sep-24 03:46 152 2 gusting 4 27.2
2017-Sep-24 03:16 205 26.7
2017-Sep-24 02:46 219 26.7
2017-Sep-24 02:16 217 25.6
2017-Sep-24 01:47 215 0 gusting 0 24.4
2017-Sep-24 01:17 355 23.3
2017-Sep-24 00:47 355 23.3
2017-Sep-24 00:16 355 22.8
2017-Sep-23 23:46 355 22.2
2017-Sep-23 23:16 355 21.7
2017-Sep-23 22:46 355 20.6
2017-Sep-23 22:16 355 20.0
2017-Sep-23 21:47 355 20.0
2017-Sep-23 21:16 355 19.4
2017-Sep-23 20:46 355 20.0
2017-Sep-23 20:16 355 20.0
2017-Sep-23 19:47 355 19.4
2017-Sep-23 19:16 355 19.4
2017-Sep-23 18:47 355 19.4
2017-Sep-23 18:17 355 19.4
2017-Sep-23 17:47 355 19.4
2017-Sep-23 17:16 355 19.4
2017-Sep-23 16:47 355 19.4
2017-Sep-23 16:16 355 20.0
2017-Sep-23 15:46 355 20.0
2017-Sep-23 15:16 355 20.0
2017-Sep-23 14:47 355 20.0
2017-Sep-23 14:17 355 20.0
2017-Sep-23 13:46 355 20.0
2017-Sep-23 13:17 355 20.0
2017-Sep-23 12:47 355 20.6
2017-Sep-23 12:17 355 20.6
2017-Sep-23 11:46 355 21.1
2017-Sep-23 11:16 355 21.1
2017-Sep-23 10:46 355 21.1
2017-Sep-23 10:17 355 21.7
2017-Sep-23 09:46 355 22.2
2017-Sep-23 09:17 355 22.8
2017-Sep-23 08:46 355 22.8
2017-Sep-23 08:17 013 2 gusting 4 23.3
2017-Sep-23 07:47 040 23.3
2017-Sep-23 07:17 032 23.3
2017-Sep-23 06:46 030 0 gusting 4 23.3
2017-Sep-23 06:16 040 5 gusting 6 23.9
2017-Sep-23 05:47 021 5 gusting 7 23.3
2017-Sep-23 05:17 014 22.8
2017-Sep-23 04:47 031 6 gusting 7 22.8
2017-Sep-23 04:16 019 5 gusting 7 22.2
2017-Sep-23 03:46 22.2
2017-Sep-23 03:16 017 5 gusting 6 21.7
2017-Sep-23 02:47 323 4 gusting 5 21.1
2017-Sep-23 02:17 036 4 gusting 6 21.1
2017-Sep-23 01:47 355 5 gusting 12 20.6
2017-Sep-23 01:16 350 5 gusting 6 20.6
2017-Sep-23 00:46 031 5 gusting 9 19.4
2017-Sep-23 00:17 036 3 gusting 7 18.9
2017-Sep-22 23:47 038 6 gusting 7 18.3
2017-Sep-22 23:16 015 3 gusting 6 18.3
2017-Sep-22 22:47 333 1 gusting 4 18.3
2017-Sep-22 22:16 331 0 gusting 4 17.8
2017-Sep-22 21:46 340 4 gusting 6 17.8
2017-Sep-22 21:17 348 17.8
2017-Sep-22 20:47 017 5 gusting 9 17.8
2017-Sep-22 20:17 030 0 gusting 6 18.3
2017-Sep-22 19:47 029 3 gusting 6 18.3
2017-Sep-22 19:17 026 2 gusting 4 18.9
2017-Sep-22 18:47 031 1 gusting 5 18.9
2017-Sep-22 18:17 348 19.4
2017-Sep-22 17:47 344 19.4
2017-Sep-22 17:17 329 19.4
2017-Sep-22 16:47 329 19.4
2017-Sep-22 16:16 298 0 gusting 3 19.4
2017-Sep-22 15:47 298 19.4
2017-Sep-22 15:17 211 19.4
2017-Sep-22 14:47 211 19.4
2017-Sep-22 14:17 307 19.4
2017-Sep-22 13:47 349 20.0
2017-Sep-22 13:17 036 20.6
2017-Sep-22 12:47 163 20.6
2017-Sep-22 12:16 355 20.0
2017-Sep-22 11:47 355 20.0
2017-Sep-22 11:17 355 20.0
2017-Sep-22 10:46 327 20.0
2017-Sep-22 10:17 283 20.0
2017-Sep-22 09:47 273 20.6
2017-Sep-22 09:16 020 21.1
2017-Sep-22 08:47 022 21.7
2017-Sep-22 08:17 066 22.2
2017-Sep-22 07:46 232 21.7
2017-Sep-22 07:17 233 21.7